createdAt,value
2023-03-27T00:01:24.664Z,99603.31
2023-03-27T00:04:26.201Z,99607.88
2023-03-27T00:07:27.886Z,99625.28
2023-03-27T00:10:29.374Z,99622.09
2023-03-27T00:13:31.414Z,99635.44
2023-03-27T00:16:32.837Z,99636.25
2023-03-27T00:19:34.264Z,99645.19
2023-03-27T00:22:35.907Z,99654.84
2023-03-27T00:25:37.320Z,99663.53
2023-03-27T00:28:39.189Z,99679.44
2023-03-27T00:31:40.736Z,99685.84
2023-03-27T00:34:42.152Z,99693.69
2023-03-27T00:37:43.534Z,99710.34
2023-03-27T00:40:46.696Z,99711.25
2023-03-27T00:43:49.947Z,99734.03
2023-03-27T00:46:55.141Z,99741.34
2023-03-27T00:49:58.322Z,99744.94
2023-03-27T00:53:11.999Z,99751.22
2023-03-27T00:56:15.582Z,99759.16
2023-03-27T00:59:21.934Z,99762.88
2023-03-27T01:02:23.666Z,99774.19
2023-03-27T01:05:27.266Z,99767.25
2023-03-27T01:08:32.976Z,99778.78
2023-03-27T01:11:41.205Z,99778.19
2023-03-27T01:15:11.857Z,99786.19
2023-03-27T01:18:31.120Z,99791.50
2023-03-27T01:22:09.706Z,99797.78
2023-03-27T01:25:26.251Z,99801.28
2023-03-27T01:29:08.717Z,99809.19
2023-03-27T01:32:42.177Z,99810.03
2023-03-27T01:35:54.114Z,99827.41
2023-03-27T01:39:14.452Z,99829.19
2023-03-27T01:42:43.762Z,99831.84
2023-03-27T01:46:33.999Z,99843.13
2023-03-27T01:49:46.368Z,99845.72
2023-03-27T01:52:53.420Z,99844.94
2023-03-27T01:56:02.660Z,99858.84
2023-03-27T01:59:14.308Z,99867.53
2023-03-27T02:02:29.500Z,99873.66
2023-03-27T02:05:36.085Z,99883.31
2023-03-27T02:08:46.777Z,99898.25
2023-03-27T02:12:04.001Z,99904.41
2023-03-27T02:15:23.679Z,99908.00
2023-03-27T02:18:36.603Z,99915.84
2023-03-27T02:21:38.117Z,99925.44
2023-03-27T02:24:40.547Z,99919.53
2023-03-27T02:27:47.768Z,99939.63
2023-03-27T02:31:32.685Z,99949.34
2023-03-27T02:34:53.794Z,99961.59
2023-03-27T02:38:41.185Z,99968.81
2023-03-27T02:42:05.507Z,99976.78
2023-03-27T02:45:28.043Z,99995.34
2023-03-27T02:48:34.227Z,100007.59
2023-03-27T02:51:47.588Z,100014.81
2023-03-27T02:54:54.101Z,100029.75
2023-03-27T02:58:02.990Z,100030.53
2023-03-27T03:01:13.526Z,100036.97
2023-03-27T03:04:33.009Z,100044.97
2023-03-27T03:07:46.214Z,100052.00
2023-03-27T03:10:48.485Z,100051.25
2023-03-27T03:13:49.889Z,100060.09
2023-03-27T03:16:51.986Z,100073.97
2023-03-27T03:19:53.687Z,100081.94
2023-03-27T03:22:57.231Z,100078.59
2023-03-27T03:25:58.657Z,100090.84
2023-03-27T03:29:07.735Z,100104.91
2023-03-27T03:32:12.795Z,100110.19
2023-03-27T03:35:14.655Z,100116.41
2023-03-27T03:38:24.915Z,100134.72
2023-03-27T03:41:26.451Z,100145.19
2023-03-27T03:44:28.527Z,100158.25
2023-03-27T03:47:31.363Z,100173.00
2023-03-27T03:50:32.974Z,100184.34
2023-03-27T03:53:34.371Z,100190.44
2023-03-27T03:56:37.253Z,100204.34
2023-03-27T03:59:39.106Z,100219.13
2023-03-27T04:02:57.433Z,100230.47
2023-03-27T04:06:05.320Z,100230.41
2023-03-27T04:09:07.307Z,100243.44
2023-03-27T04:12:28.096Z,100247.81
2023-03-27T04:15:35.031Z,100246.97
2023-03-27T04:18:39.250Z,100248.72
2023-03-27T04:21:43.222Z,100253.94
2023-03-27T04:24:44.823Z,100265.22
2023-03-27T04:27:52.823Z,100274.81
2023-03-27T04:31:06.134Z,100282.66
2023-03-27T04:34:26.101Z,100293.06
2023-03-27T04:37:55.111Z,100302.63
2023-03-27T04:41:13.710Z,100304.28
2023-03-27T04:44:17.518Z,100317.34
2023-03-27T04:47:20.361Z,100338.25
2023-03-27T04:50:24.646Z,100342.59
2023-03-27T04:53:30.031Z,100346.97
2023-03-27T04:56:33.734Z,100360.00
2023-03-27T04:59:36.942Z,100362.59
2023-03-27T05:02:57.596Z,100369.59
2023-03-27T05:06:09.962Z,100372.19
2023-03-27T05:09:12.298Z,100385.25
2023-03-27T05:12:13.774Z,100396.53
2023-03-27T05:15:30.140Z,100405.16
2023-03-27T05:18:32.450Z,100418.22
2023-03-27T05:21:33.992Z,100421.75
2023-03-27T05:24:35.564Z,100435.63
2023-03-27T05:27:37.095Z,100445.13
2023-03-27T05:30:38.534Z,100459.84
2023-03-27T05:33:52.512Z,100459.03
2023-03-27T05:36:55.728Z,100461.66
2023-03-27T05:39:57.969Z,100465.13
2023-03-27T05:42:59.386Z,100473.81
2023-03-27T05:46:03.830Z,100475.53
2023-03-27T05:49:05.689Z,100484.25
2023-03-27T05:52:08.391Z,100491.16
2023-03-27T05:55:10.899Z,100502.41
2023-03-27T05:58:14.151Z,100510.28
2023-03-27T06:01:15.540Z,100522.44
2023-03-27T06:04:18.008Z,100533.72
2023-03-27T06:07:43.532Z,100533.72
2023-03-27T06:10:45.312Z,100537.22
2023-03-27T06:13:52.967Z,100547.63
2023-03-27T06:17:00.992Z,100553.72
2023-03-27T06:20:24.810Z,100555.31
2023-03-27T06:23:28.281Z,100570.09
2023-03-27T06:26:29.739Z,100580.47
2023-03-27T06:29:37.188Z,100591.84
2023-03-27T06:32:46.545Z,100593.56
2023-03-27T06:35:52.524Z,100593.53
2023-03-27T06:38:59.041Z,100609.19
2023-03-27T06:42:00.505Z,100621.34
2023-03-27T06:45:25.061Z,100630.03
2023-03-27T06:48:58.255Z,100633.47
2023-03-27T06:51:59.710Z,100634.31
2023-03-27T06:55:03.029Z,100640.31
2023-03-27T06:58:07.023Z,100638.53
2023-03-27T07:01:08.793Z,100647.25
2023-03-27T07:04:30.619Z,100659.50
2023-03-27T07:07:41.781Z,100669.91
2023-03-27T07:10:46.977Z,100672.59
2023-03-27T07:13:52.764Z,100683.03
2023-03-27T07:16:59.169Z,100684.75
2023-03-27T07:20:06.230Z,100694.28
2023-03-27T07:23:08.428Z,100691.56
2023-03-27T07:26:33.954Z,100699.28
2023-03-27T07:29:37.352Z,100702.69
2023-03-27T07:32:43.441Z,100707.84
2023-03-27T07:35:47.475Z,100725.22
2023-03-27T07:39:14.082Z,100724.41
2023-03-27T07:42:15.662Z,100729.63
2023-03-27T07:45:31.956Z,100739.22
2023-03-27T07:48:35.776Z,100744.44
2023-03-27T07:51:38.562Z,100740.19
2023-03-27T07:54:40.989Z,100766.31
2023-03-27T07:57:59.969Z,100750.66
2023-03-27T08:01:04.453Z,100754.03
2023-03-27T08:04:06.953Z,100756.63
2023-03-27T08:07:11.501Z,100760.13
2023-03-27T08:10:16.014Z,100767.91
2023-03-27T08:13:29.940Z,100770.56
2023-03-27T08:16:36.950Z,100763.53
2023-03-27T08:19:38.403Z,100768.75
2023-03-27T08:22:41.742Z,100778.28
2023-03-27T08:26:03.870Z,100780.78
2023-03-27T08:29:11.077Z,100784.03
2023-03-27T08:32:13.011Z,100785.69
2023-03-27T08:35:18.078Z,100795.16
2023-03-27T08:38:26.650Z,100797.00
2023-03-27T08:41:55.127Z,100796.03
2023-03-27T08:45:23.686Z,100808.31
2023-03-27T08:48:34.199Z,100814.09
2023-03-27T08:51:44.794Z,100816.59
2023-03-27T08:54:53.469Z,100814.31
2023-03-27T08:58:00.127Z,100819.16
2023-03-27T09:01:13.800Z,100817.22
2023-03-27T09:04:46.916Z,100833.53
2023-03-27T09:08:08.025Z,100838.59
2023-03-27T09:11:37.137Z,100832.25
2023-03-27T09:14:48.505Z,100833.06
2023-03-27T09:18:27.835Z,100837.19
2023-03-27T09:21:47.570Z,100841.41
2023-03-27T09:24:56.526Z,100841.16
2023-03-27T09:28:30.719Z,100840.38
2023-03-27T09:31:45.988Z,100840.53
2023-03-27T09:34:48.152Z,100840.47
2023-03-27T09:37:56.535Z,100839.53
2023-03-27T09:41:02.901Z,100843.66
2023-03-27T09:44:15.427Z,100848.91
2023-03-27T09:47:30.612Z,100849.47
2023-03-27T09:50:44.242Z,100842.09
2023-03-27T09:54:05.081Z,100846.78
2023-03-27T09:57:12.411Z,100848.97
2023-03-27T10:00:34.460Z,100851.34
2023-03-27T10:03:40.297Z,100857.25
2023-03-27T10:07:05.394Z,100849.72
2023-03-27T10:10:26.840Z,100859.34
2023-03-27T10:13:50.346Z,100855.78
2023-03-27T10:16:55.024Z,100856.50
2023-03-27T10:20:19.000Z,100872.25
2023-03-27T10:23:26.885Z,100874.84
2023-03-27T10:26:32.758Z,100866.97
2023-03-27T10:29:40.973Z,100878.38
2023-03-27T10:32:47.563Z,100875.22
2023-03-27T10:36:12.187Z,100873.41
2023-03-27T10:39:14.564Z,100873.75
2023-03-27T10:42:41.815Z,100877.28
2023-03-27T10:45:51.527Z,100891.28
2023-03-27T10:49:21.372Z,100895.81
2023-03-27T10:52:32.030Z,100878.72
2023-03-27T10:56:01.622Z,100884.63
2023-03-27T10:59:11.662Z,100885.94
2023-03-27T11:02:19.177Z,100884.00
2023-03-27T11:05:30.745Z,100881.75
2023-03-27T11:09:05.023Z,100888.69
2023-03-27T11:12:14.235Z,100890.50
2023-03-27T11:15:31.467Z,100889.94
2023-03-27T11:18:38.756Z,100888.72
2023-03-27T11:21:54.439Z,100891.25
2023-03-27T11:25:26.943Z,100877.63
2023-03-27T11:28:43.781Z,100888.38
2023-03-27T11:31:49.231Z,100880.69
2023-03-27T11:35:11.684Z,100888.75
2023-03-27T11:38:28.685Z,100899.34
2023-03-27T11:41:31.022Z,100892.09
2023-03-27T11:44:35.961Z,100909.72
2023-03-27T11:48:07.854Z,100911.50
2023-03-27T11:51:46.849Z,100920.38
2023-03-27T11:54:55.830Z,100950.31
2023-03-27T11:58:15.822Z,100951.44
2023-03-27T12:01:28.327Z,100969.22
2023-03-27T12:04:56.794Z,100968.31
2023-03-27T12:08:46.053Z,100963.75
2023-03-27T12:12:00.109Z,100955.56
2023-03-27T12:15:23.896Z,100961.72
2023-03-27T12:22:23.855Z,100942.88
2023-03-27T12:25:50.170Z,100931.06
2023-03-27T12:29:23.079Z,100919.56
2023-03-27T12:32:53.408Z,100919.41
2023-03-27T12:36:02.571Z,100927.97
2023-03-27T12:39:25.922Z,100932.06
2023-03-27T12:42:43.669Z,100933.34
2023-03-27T12:46:23.497Z,100931.06
2023-03-27T12:49:34.234Z,100930.31
2023-03-27T12:52:45.562Z,100930.06
2023-03-27T12:56:14.331Z,100926.91
2023-03-27T12:59:22.981Z,100934.16
2023-03-27T13:02:36.702Z,100935.91
2023-03-27T13:05:57.375Z,100931.50
2023-03-27T13:09:08.744Z,100937.28
2023-03-27T13:12:57.625Z,100932.16
2023-03-27T13:16:23.560Z,100944.31
2023-03-27T13:19:34.193Z,100959.22
2023-03-27T13:23:10.270Z,100962.16
2023-03-27T13:26:36.391Z,100968.94
2023-03-27T13:29:39.118Z,100975.84
2023-03-27T13:33:16.239Z,100972.53
2023-03-27T13:36:22.722Z,100972.50
2023-03-27T13:39:24.783Z,100967.19
2023-03-27T13:42:44.103Z,100972.50
2023-03-27T13:45:49.938Z,100969.88
2023-03-27T13:49:28.758Z,100978.56
2023-03-27T13:53:02.963Z,100973.22
2023-03-27T13:56:37.020Z,100972.28
2023-03-27T14:00:13.816Z,100978.47
2023-03-27T14:03:35.931Z,100966.03
2023-03-27T14:07:24.040Z,100961.22
2023-03-27T14:11:07.366Z,100962.81
2023-03-27T14:14:36.975Z,100972.66
2023-03-27T14:18:06.120Z,100976.44
2023-03-27T14:21:12.022Z,100953.34
2023-03-27T14:24:39.611Z,100976.34
2023-03-27T14:27:55.830Z,100976.88
2023-03-27T14:31:05.974Z,100977.31
2023-03-27T14:34:54.330Z,101002.34
2023-03-27T14:38:26.136Z,101009.38
2023-03-27T14:41:28.813Z,101009.75
2023-03-27T14:44:34.437Z,101010.94
2023-03-27T14:47:41.807Z,101015.66
2023-03-27T14:50:46.338Z,101004.31
2023-03-27T14:53:50.873Z,100997.25
2023-03-27T14:57:00.433Z,101002.25
2023-03-27T15:00:07.786Z,101012.81
2023-03-27T15:03:19.962Z,101014.28
2023-03-27T15:06:36.256Z,101005.47
2023-03-27T15:09:38.894Z,101005.28
2023-03-27T15:13:15.925Z,101006.16
2023-03-27T15:16:25.894Z,101001.53
2023-03-27T15:19:56.016Z,100991.53
2023-03-27T15:23:04.329Z,100993.34
2023-03-27T15:26:24.238Z,100996.16
2023-03-27T15:29:42.460Z,100996.53
2023-03-27T15:32:50.811Z,101006.69
2023-03-27T15:35:56.082Z,101004.09
2023-03-27T15:39:00.568Z,100992.09
2023-03-27T15:42:13.598Z,100993.88
2023-03-27T15:45:17.186Z,100990.63
2023-03-27T15:48:23.074Z,100991.75
2023-03-27T15:51:29.982Z,100990.69
2023-03-27T15:54:34.206Z,100981.53
2023-03-27T15:57:35.760Z,100989.63
2023-03-27T16:00:44.473Z,100994.75
2023-03-27T16:03:48.251Z,100989.94
2023-03-27T16:06:54.394Z,100983.56
2023-03-27T16:10:05.109Z,100983.97
2023-03-27T16:13:25.048Z,100983.31
2023-03-27T16:16:29.763Z,100988.03
2023-03-27T16:19:41.726Z,100991.56
2023-03-27T16:22:43.125Z,100995.25
2023-03-27T16:25:44.560Z,100995.56
2023-03-27T16:28:46.081Z,100989.84
2023-03-27T16:31:47.610Z,101003.16
2023-03-27T16:34:51.569Z,101003.25
2023-03-27T16:37:53.974Z,101007.03
2023-03-27T16:40:55.336Z,101007.94
2023-03-27T16:43:56.890Z,101001.88
2023-03-27T16:46:58.342Z,101013.25
2023-03-27T16:50:10.759Z,101019.47
2023-03-27T16:53:12.859Z,101027.19
2023-03-27T16:56:14.323Z,101033.25
2023-03-27T16:59:16.440Z,101030.53
2023-03-27T17:02:17.917Z,101045.44
2023-03-27T17:05:19.434Z,101054.16
2023-03-27T17:08:20.990Z,101052.47
2023-03-27T17:11:23.286Z,101055.06
2023-03-27T17:14:24.983Z,101053.50
2023-03-27T17:17:27.548Z,101055.25
2023-03-27T17:20:29.111Z,101057.81
2023-03-27T17:23:31.493Z,101070.06
2023-03-27T17:26:35.198Z,101073.56
2023-03-27T17:29:36.658Z,101098.47
2023-03-27T17:32:38.373Z,101100.22
2023-03-27T17:35:41.247Z,101115.25
2023-03-27T17:38:43.132Z,101114.38
2023-03-27T17:41:44.489Z,101117.91
2023-03-27T17:44:46.033Z,101125.81
2023-03-27T17:47:47.435Z,101122.16
2023-03-27T17:51:01.248Z,101128.22
2023-03-27T17:54:09.583Z,101149.31
2023-03-27T17:57:11.019Z,101144.06
2023-03-27T18:00:14.002Z,101143.09
2023-03-27T18:03:16.707Z,101161.66
2023-03-27T18:06:18.469Z,101170.47
2023-03-27T18:09:19.899Z,101176.63
2023-03-27T18:12:21.559Z,101183.63
2023-03-27T18:15:23.052Z,101184.53
2023-03-27T18:18:24.930Z,101205.66
2023-03-27T18:21:26.372Z,101212.72
2023-03-27T18:24:28.322Z,101229.38
2023-03-27T18:27:29.808Z,101232.09
2023-03-27T18:30:32.399Z,101221.72
2023-03-27T18:33:34.002Z,101229.59
2023-03-27T18:36:35.733Z,101244.44
2023-03-27T18:39:37.646Z,101235.72
2023-03-27T18:42:40.560Z,101241.03
2023-03-27T18:45:42.663Z,101241.06
2023-03-27T18:48:45.837Z,101246.28
2023-03-27T18:51:47.268Z,101249.78
2023-03-27T18:54:48.704Z,101251.53
2023-03-27T18:57:50.658Z,101257.63
2023-03-27T19:00:52.252Z,101247.97
2023-03-27T19:03:53.864Z,101247.91
2023-03-27T19:06:55.346Z,101257.56
2023-03-27T19:09:57.192Z,101259.28
2023-03-27T19:12:58.557Z,101256.63
2023-03-27T19:16:32.907Z,101261.91
2023-03-27T19:19:54.738Z,101268.03
2023-03-27T19:23:08.957Z,101268.03
2023-03-27T19:26:17.036Z,101270.69
2023-03-27T19:29:20.151Z,101273.31
2023-03-27T19:32:24.177Z,101279.38
2023-03-27T19:35:26.466Z,101266.34
2023-03-27T19:38:28.060Z,101277.69
2023-03-27T19:41:29.459Z,101280.28
2023-03-27T19:44:31.554Z,101289.03
2023-03-27T19:47:33.085Z,101293.41
2023-03-27T19:50:34.704Z,101293.34
2023-03-27T19:53:46.574Z,101288.13
2023-03-27T19:56:48.040Z,101298.63
2023-03-27T19:59:50.326Z,101300.34
2023-03-27T20:02:52.692Z,101305.59
2023-03-27T20:05:56.082Z,101309.09
2023-03-27T20:09:10.103Z,101312.56
2023-03-27T20:12:12.201Z,101311.69
2023-03-27T20:15:14.048Z,101313.44
2023-03-27T20:18:19.764Z,101311.72
2023-03-27T20:21:24.399Z,101316.03
2023-03-27T20:24:26.009Z,101315.19
2023-03-27T20:27:32.284Z,101316.03
2023-03-27T20:30:39.118Z,101317.81
2023-03-27T20:33:40.502Z,101324.78
2023-03-27T20:36:43.330Z,101316.06
2023-03-27T20:39:54.793Z,101319.56
2023-03-27T20:43:05.797Z,101320.44
2023-03-27T20:46:10.554Z,101323.03
2023-03-27T20:49:37.568Z,101320.38
2023-03-27T20:52:44.807Z,101326.50
2023-03-27T20:55:57.028Z,101332.56
2023-03-27T20:59:01.596Z,101336.94
2023-03-27T21:02:03.462Z,101322.97
2023-03-27T21:05:05.312Z,101329.91
2023-03-27T21:08:07.245Z,101336.88
2023-03-27T21:11:08.990Z,101338.66
2023-03-27T21:14:10.494Z,101346.47
2023-03-27T21:17:12.068Z,101336.88
2023-03-27T21:20:13.784Z,101340.34
2023-03-27T21:23:15.308Z,101341.25
2023-03-27T21:26:18.465Z,101340.38
2023-03-27T21:29:20.813Z,101339.47
2023-03-27T21:32:22.182Z,101345.53
2023-03-27T21:35:23.711Z,101350.69
2023-03-27T21:38:25.393Z,101357.63
2023-03-27T21:41:27.057Z,101354.13
2023-03-27T21:44:28.442Z,101354.09
2023-03-27T21:47:37.471Z,101366.25
2023-03-27T21:50:46.442Z,101360.16
2023-03-27T21:53:47.965Z,101364.50
2023-03-27T21:56:49.435Z,101365.38
2023-03-27T21:59:50.835Z,101371.50
2023-03-27T22:02:52.435Z,101378.44
2023-03-27T22:06:08.429Z,101382.78
2023-03-27T22:09:12.706Z,101383.69
2023-03-27T22:12:14.095Z,101379.31
2023-03-27T22:15:15.734Z,101385.38
2023-03-27T22:18:17.111Z,101387.97
2023-03-27T22:21:25.161Z,101397.56
2023-03-27T22:24:26.596Z,101401.06
2023-03-27T22:27:27.969Z,101406.28
2023-03-27T22:30:29.408Z,101409.78
2023-03-27T22:33:31.895Z,101412.41
2023-03-27T22:36:33.652Z,101408.94
2023-03-27T22:39:35.130Z,101425.44
2023-03-27T22:42:36.837Z,101421.88
2023-03-27T22:45:38.419Z,101428.75
2023-03-27T22:48:40.176Z,101429.59
2023-03-27T22:51:41.532Z,101426.06
2023-03-27T22:54:42.986Z,101442.53
2023-03-27T22:57:44.440Z,101439.84
2023-03-27T23:00:47.247Z,101454.59
2023-03-27T23:03:48.854Z,101450.22
2023-03-27T23:06:51.002Z,101456.22
2023-03-27T23:09:52.373Z,101457.88
2023-03-27T23:12:53.739Z,101454.41
2023-03-27T23:15:55.660Z,101461.22
2023-03-27T23:18:57.074Z,101469.09
2023-03-27T23:21:58.434Z,101474.19
2023-03-27T23:24:59.789Z,101479.44
2023-03-27T23:28:01.179Z,101469.75
2023-03-27T23:31:04.961Z,101473.28
2023-03-27T23:34:06.338Z,101470.72
2023-03-27T23:37:07.710Z,101472.50
2023-03-27T23:40:09.487Z,101480.13
2023-03-27T23:43:10.849Z,101477.28
2023-03-27T23:46:13.098Z,101487.59
2023-03-27T23:49:14.735Z,101483.22
2023-03-27T23:52:16.154Z,101493.72
2023-03-27T23:55:17.544Z,101492.91
2023-03-27T23:58:18.981Z,101498.16
